createdAt,value
2022-10-08T00:01:08.703Z,23.00
2022-10-08T00:03:37.046Z,22.00
2022-10-08T00:06:05.366Z,22.00
2022-10-08T00:08:33.745Z,22.00
2022-10-08T00:11:04.051Z,23.00
2022-10-08T00:13:40.523Z,22.00
2022-10-08T00:16:08.931Z,22.00
2022-10-08T00:18:36.490Z,22.00
2022-10-08T00:21:07.625Z,19.00
2022-10-08T00:23:35.242Z,22.00
2022-10-08T00:26:04.357Z,22.00
2022-10-08T00:28:31.809Z,22.00
2022-10-08T00:30:59.283Z,20.00
2022-10-08T00:33:27.041Z,22.00
2022-10-08T00:35:54.415Z,22.25
2022-10-08T00:38:21.794Z,22.00
2022-10-08T00:40:49.185Z,21.75
2022-10-08T00:43:17.854Z,21.50
2022-10-08T00:45:46.091Z,19.75
2022-10-08T00:48:13.932Z,22.25
2022-10-08T00:50:41.502Z,19.25
2022-10-08T00:53:10.009Z,20.00
2022-10-08T00:55:43.361Z,21.00
2022-10-08T00:58:13.068Z,20.00
2022-10-08T01:00:41.889Z,21.00
2022-10-08T01:03:09.324Z,21.25
2022-10-08T01:05:41.873Z,19.00
2022-10-08T01:08:11.516Z,20.00
2022-10-08T01:10:40.958Z,19.25
2022-10-08T01:13:13.976Z,20.25
2022-10-08T01:15:44.046Z,19.50
2022-10-08T01:18:14.629Z,21.25
2022-10-08T01:20:45.175Z,20.00
2022-10-08T01:23:27.086Z,20.00
2022-10-08T01:25:57.079Z,17.75
2022-10-08T01:28:28.631Z,20.00
2022-10-08T01:30:58.669Z,20.00
2022-10-08T01:33:27.748Z,19.00
2022-10-08T01:35:57.359Z,19.75
2022-10-08T01:38:25.273Z,19.00
2022-10-08T01:40:53.005Z,20.00
2022-10-08T01:43:20.395Z,19.25
2022-10-08T01:45:50.301Z,19.25
2022-10-08T01:48:22.624Z,18.25
2022-10-08T01:50:52.130Z,18.25
2022-10-08T01:53:19.528Z,17.50
2022-10-08T01:55:48.569Z,16.00
2022-10-08T01:58:17.805Z,20.00
2022-10-08T02:00:45.222Z,18.50
2022-10-08T02:03:13.910Z,18.00
2022-10-08T02:05:43.356Z,17.00
2022-10-08T02:08:10.761Z,16.75
2022-10-08T02:10:38.184Z,17.25
2022-10-08T02:13:05.871Z,17.50
2022-10-08T02:15:35.933Z,17.75
2022-10-08T02:18:07.772Z,16.75
2022-10-08T02:20:37.008Z,17.75
2022-10-08T02:23:06.709Z,16.25
2022-10-08T02:25:35.294Z,16.75
2022-10-08T02:28:07.477Z,14.00
2022-10-08T02:30:38.378Z,15.75
2022-10-08T02:33:06.474Z,15.25
2022-10-08T02:35:38.646Z,15.00
2022-10-08T02:38:07.410Z,15.25
2022-10-08T02:40:34.787Z,15.50
2022-10-08T02:43:04.344Z,15.75
2022-10-08T02:45:33.321Z,16.25
2022-10-08T02:48:02.280Z,13.25
2022-10-08T02:50:30.006Z,14.00
2022-10-08T02:52:58.668Z,15.00
2022-10-08T02:55:30.211Z,13.75
2022-10-08T02:57:59.096Z,14.25
2022-10-08T03:00:26.548Z,15.25
2022-10-08T03:02:57.061Z,15.00
2022-10-08T03:05:24.459Z,15.25
2022-10-08T03:07:51.872Z,13.75
2022-10-08T03:10:24.451Z,15.00
2022-10-08T03:12:51.822Z,14.50
2022-10-08T03:15:19.715Z,14.00
2022-10-08T03:17:47.097Z,14.75
2022-10-08T03:20:14.489Z,14.00
2022-10-08T03:22:41.876Z,15.25
2022-10-08T03:25:09.515Z,14.00
2022-10-08T03:27:38.201Z,13.25
2022-10-08T03:30:06.430Z,14.75
2022-10-08T03:32:33.824Z,13.25
2022-10-08T03:35:01.209Z,15.00
2022-10-08T03:37:28.595Z,13.50
2022-10-08T03:39:55.981Z,0.50
2022-10-08T03:42:23.365Z,13.00
2022-10-08T03:44:52.106Z,13.00
2022-10-08T03:47:19.526Z,12.25
2022-10-08T03:49:46.919Z,12.00
2022-10-08T03:52:14.308Z,12.25
2022-10-08T03:54:41.708Z,13.00
2022-10-08T03:57:09.080Z,12.75
2022-10-08T03:59:36.466Z,12.00
2022-10-08T04:02:05.141Z,12.25
2022-10-08T04:04:32.533Z,12.75
2022-10-08T04:06:59.907Z,11.00
2022-10-08T04:09:27.328Z,13.75
2022-10-08T04:11:54.739Z,13.00
2022-10-08T04:14:22.136Z,13.25
2022-10-08T04:16:49.554Z,12.00
2022-10-08T04:19:18.367Z,11.00
2022-10-08T04:21:45.763Z,12.00
2022-10-08T04:24:13.175Z,11.75
2022-10-08T04:26:40.582Z,11.00
2022-10-08T04:29:08.278Z,10.75
2022-10-08T04:31:35.716Z,11.00
2022-10-08T04:34:03.137Z,13.00
2022-10-08T04:36:31.827Z,10.00
2022-10-08T04:38:59.243Z,10.75
2022-10-08T04:41:27.221Z,11.00
2022-10-08T04:43:54.857Z,11.75
2022-10-08T04:46:22.861Z,11.50
2022-10-08T04:48:51.347Z,10.25
2022-10-08T04:51:18.814Z,12.00
2022-10-08T04:53:47.643Z,11.25
2022-10-08T04:56:16.865Z,12.25
2022-10-08T04:58:44.306Z,11.25
2022-10-08T05:01:13.320Z,9.50
2022-10-08T05:03:41.606Z,10.50
2022-10-08T05:06:10.854Z,10.50
2022-10-08T05:08:38.409Z,11.25
2022-10-08T05:11:07.193Z,10.25
2022-10-08T05:13:34.605Z,10.00
2022-10-08T05:16:04.517Z,10.00
2022-10-08T05:18:32.311Z,11.00
2022-10-08T05:21:03.187Z,10.00
2022-10-08T05:23:30.599Z,11.00
2022-10-08T05:25:58.060Z,10.50
2022-10-08T05:28:26.858Z,9.25
2022-10-08T05:31:00.662Z,10.00
2022-10-08T05:33:28.099Z,10.00
2022-10-08T05:35:55.543Z,9.50
2022-10-08T05:38:22.996Z,11.00
2022-10-08T05:40:50.550Z,10.50
2022-10-08T05:43:17.960Z,9.50
2022-10-08T05:45:51.856Z,9.50
2022-10-08T05:48:20.465Z,10.50
2022-10-08T05:50:47.887Z,8.75
2022-10-08T05:53:15.646Z,9.00
2022-10-08T05:55:43.163Z,10.00
2022-10-08T05:58:10.576Z,9.00
2022-10-08T06:00:39.044Z,8.50
2022-10-08T06:03:07.800Z,11.00
2022-10-08T06:05:35.237Z,8.25
2022-10-08T06:08:03.857Z,7.00
2022-10-08T06:10:33.545Z,8.00
2022-10-08T06:13:01.076Z,6.25
2022-10-08T06:15:28.473Z,6.75
2022-10-08T06:17:58.407Z,6.25
2022-10-08T06:20:31.666Z,6.25
2022-10-08T06:22:59.454Z,6.25
2022-10-08T06:25:26.857Z,7.00
2022-10-08T06:27:54.265Z,8.00
2022-10-08T06:30:22.812Z,7.00
2022-10-08T06:32:50.558Z,7.25
2022-10-08T06:35:17.978Z,12.00
2022-10-08T06:37:49.521Z,9.00
2022-10-08T06:40:19.658Z,8.00
2022-10-08T06:42:47.841Z,8.00
2022-10-08T06:45:17.920Z,11.25
2022-10-08T06:47:45.315Z,9.00
2022-10-08T06:50:12.719Z,7.00
2022-10-08T06:52:40.111Z,8.00
2022-10-08T06:55:08.985Z,6.75
2022-10-08T06:57:36.459Z,7.00
2022-10-08T07:00:03.874Z,7.75
2022-10-08T07:02:31.950Z,7.50
2022-10-08T07:04:59.409Z,7.00
2022-10-08T07:07:26.845Z,6.00
2022-10-08T07:09:54.232Z,5.75
2022-10-08T07:12:22.913Z,6.00
2022-10-08T07:14:50.291Z,7.00
2022-10-08T07:17:17.696Z,8.50
2022-10-08T07:19:45.089Z,7.00
2022-10-08T07:22:12.497Z,8.00
2022-10-08T07:24:39.922Z,10.00
2022-10-08T07:27:07.313Z,9.25
2022-10-08T07:29:36.477Z,10.00
2022-10-08T07:32:03.881Z,9.25
2022-10-08T07:34:31.275Z,9.25
2022-10-08T07:36:58.711Z,10.75
2022-10-08T07:39:26.507Z,12.00
2022-10-08T07:41:54.129Z,11.00
2022-10-08T07:44:21.534Z,11.25
2022-10-08T07:46:51.415Z,12.75
2022-10-08T07:49:19.209Z,12.25
2022-10-08T07:51:46.672Z,12.75
2022-10-08T07:54:15.249Z,13.75
2022-10-08T07:56:42.659Z,12.25
2022-10-08T07:59:11.990Z,12.75
2022-10-08T08:01:40.808Z,15.25
2022-10-08T08:04:10.324Z,14.75
2022-10-08T08:06:41.487Z,14.00
2022-10-08T08:09:08.887Z,14.25
2022-10-08T08:11:36.292Z,15.50
2022-10-08T08:14:03.751Z,16.00
2022-10-08T08:16:33.769Z,16.00
2022-10-08T08:19:01.979Z,15.00
2022-10-08T08:21:31.723Z,16.25
2022-10-08T08:23:59.835Z,16.50
2022-10-08T08:34:34.285Z,16.00
2022-10-08T08:46:06.029Z,15.25
2022-10-08T08:49:26.105Z,15.50
2022-10-08T10:22:54.233Z,10.00
2022-10-08T10:26:57.050Z,10.00
2022-10-08T11:04:40.899Z,8.25
2022-10-08T11:07:16.198Z,8.75
2022-10-08T11:09:45.057Z,9.00
2022-10-08T11:12:28.460Z,9.00
2022-10-08T11:15:00.274Z,8.00
2022-10-08T11:46:50.639Z,7.75
2022-10-08T11:49:44.909Z,8.00
2022-10-08T11:52:15.119Z,8.00
2022-10-08T11:54:42.545Z,8.00
2022-10-08T11:57:14.127Z,8.50
2022-10-08T12:01:06.839Z,8.00
2022-10-08T15:39:43.216Z,8.00
2022-10-08T16:11:58.590Z,7.50
2022-10-08T16:25:01.260Z,6.75
2022-10-08T18:20:20.017Z,5.00
2022-10-08T18:41:42.535Z,6.00
2022-10-08T18:44:11.732Z,5.25
2022-10-08T18:46:39.368Z,4.00
2022-10-08T18:49:07.163Z,6.25
2022-10-08T18:51:34.617Z,6.25
2022-10-08T18:54:02.240Z,6.00
2022-10-08T18:56:30.420Z,6.00
2022-10-08T18:59:01.547Z,6.00
2022-10-08T19:01:29.943Z,6.00
2022-10-08T19:03:58.695Z,7.00
2022-10-08T19:06:27.445Z,5.00
2022-10-08T19:08:55.916Z,6.75
2022-10-08T19:11:24.459Z,6.25
2022-10-08T19:13:53.028Z,6.00
2022-10-08T19:16:21.826Z,6.00
2022-10-08T19:18:53.009Z,6.00
2022-10-08T19:21:20.474Z,6.00
2022-10-08T19:23:47.888Z,6.25
2022-10-08T19:26:15.393Z,6.50
2022-10-08T19:28:45.948Z,5.50
2022-10-08T19:31:14.747Z,7.00
2022-10-08T19:33:43.583Z,4.50
2022-10-08T19:36:11.301Z,6.00
2022-10-08T19:38:39.006Z,0.00
2022-10-08T19:41:09.822Z,5.50
2022-10-08T19:43:37.715Z,6.00
2022-10-08T19:46:05.684Z,3.00
2022-10-08T19:48:33.352Z,6.25
2022-10-08T19:51:05.105Z,5.75
2022-10-08T19:53:32.900Z,6.50
2022-10-08T19:56:00.311Z,5.00
2022-10-08T19:58:27.720Z,5.75
2022-10-08T20:00:59.147Z,6.25
2022-10-08T20:03:26.596Z,6.00
2022-10-08T20:05:54.124Z,6.00
2022-10-08T20:08:23.005Z,6.00
2022-10-08T20:10:50.421Z,6.50
2022-10-08T20:13:17.834Z,5.75
2022-10-08T20:15:48.989Z,7.00
2022-10-08T20:18:18.634Z,6.00
2022-10-08T20:20:46.074Z,6.25
2022-10-08T20:23:13.479Z,5.67
2022-10-08T20:25:42.506Z,5.50
2022-10-08T20:28:09.943Z,5.75
2022-10-08T20:30:37.704Z,6.00
2022-10-08T20:33:05.134Z,6.00
2022-10-08T20:35:32.532Z,5.00
2022-10-08T20:37:59.943Z,4.25
2022-10-08T20:40:27.337Z,6.00
2022-10-08T20:42:56.033Z,6.00
2022-10-08T20:45:23.492Z,5.75
2022-10-08T20:47:50.887Z,5.00
2022-10-08T20:50:18.734Z,6.00
2022-10-08T20:52:46.368Z,6.00
2022-10-08T20:55:13.928Z,5.33
2022-10-08T20:57:41.329Z,6.00
2022-10-08T21:00:11.302Z,6.25
2022-10-08T21:02:38.688Z,6.00
2022-10-08T21:05:06.569Z,5.25
2022-10-08T21:07:33.958Z,5.50
2022-10-08T21:10:01.366Z,5.25
2022-10-08T21:12:28.767Z,5.25
2022-10-08T21:14:56.189Z,6.00
2022-10-08T21:17:24.866Z,6.00
2022-10-08T21:19:52.307Z,5.00
2022-10-08T21:22:19.735Z,4.75
2022-10-08T21:24:47.145Z,5.25
2022-10-08T21:27:14.591Z,6.00
2022-10-08T21:29:42.005Z,6.00
2022-10-08T21:32:09.413Z,6.00
2022-10-08T21:34:38.113Z,6.25
2022-10-08T21:37:06.790Z,5.00
2022-10-08T21:39:34.257Z,5.00
2022-10-08T21:42:01.665Z,5.00
2022-10-08T21:44:29.085Z,5.00
2022-10-08T21:46:56.473Z,4.33
2022-10-08T21:49:25.155Z,5.75
2022-10-08T21:51:53.841Z,5.00
2022-10-08T21:54:21.246Z,5.00
2022-10-08T21:56:48.643Z,4.33
2022-10-08T21:59:16.155Z,5.00
2022-10-08T22:01:44.374Z,5.00
2022-10-08T22:04:12.374Z,6.00
2022-10-08T22:06:40.681Z,5.00
2022-10-08T22:09:10.883Z,5.00
2022-10-08T22:11:38.306Z,6.00
2022-10-08T22:14:05.734Z,5.33
2022-10-08T22:16:33.412Z,5.25
2022-10-08T22:19:00.913Z,5.00
2022-10-08T22:21:28.300Z,4.00
2022-10-08T22:23:55.820Z,5.00
2022-10-08T22:26:26.949Z,6.00
2022-10-08T22:28:54.333Z,4.00
2022-10-08T22:31:21.798Z,5.00
2022-10-08T22:33:49.318Z,4.00
2022-10-08T22:36:17.884Z,5.00
2022-10-08T22:38:45.527Z,4.00
2022-10-08T22:41:13.660Z,5.00
2022-10-08T22:43:42.525Z,5.00
2022-10-08T22:46:11.673Z,5.00
2022-10-08T22:48:39.997Z,4.25
2022-10-08T22:51:08.324Z,5.00
2022-10-08T22:53:36.016Z,5.00
2022-10-08T22:56:04.396Z,4.00
2022-10-08T22:58:31.819Z,5.00
2022-10-08T23:01:01.085Z,4.75
2022-10-08T23:03:28.543Z,5.00
2022-10-08T23:06:03.553Z,5.00
2022-10-08T23:08:30.961Z,5.00
2022-10-08T23:10:58.424Z,5.50
2022-10-08T23:13:25.973Z,5.00
2022-10-08T23:16:02.480Z,4.00
2022-10-08T23:18:30.689Z,5.00
2022-10-08T23:20:58.081Z,4.00
2022-10-08T23:23:25.467Z,4.75
2022-10-08T23:25:53.917Z,4.00
2022-10-08T23:28:21.405Z,5.00
2022-10-08T23:30:48.865Z,5.00
2022-10-08T23:33:17.589Z,5.00
2022-10-08T23:35:45.045Z,4.00
2022-10-08T23:38:12.486Z,4.50
2022-10-08T23:40:39.875Z,4.75
2022-10-08T23:43:07.258Z,4.50
2022-10-08T23:45:34.772Z,5.00
2022-10-08T23:48:02.217Z,4.25
2022-10-08T23:50:30.903Z,4.00
2022-10-08T23:52:58.308Z,4.75
2022-10-08T23:55:25.716Z,4.50
2022-10-08T23:57:53.100Z,4.00
